Terminal Aerodrome Forecast
Issued by NWS New Orleans/Baton Rouge, LA

Home | Current Version | Previous Version | Text Only | Print | Product List | Glossary On
Versions: 1 2 3 4 5 6 7 8 9 10 11 12 13 14 15 16 17 18
106
FTUS44 KLIX 220531
TAFBTR
TAF
KBTR 220531Z 2206/2306 16010KT P6SM SCT015 BKN025
     FM220900 15008KT P6SM BKN008 BKN015
     FM221600 16010KT P6SM SCT025 BKN030 PROB30 2219/2222 4SM -SHRA
      BKN025
     FM222200 16009KT P6SM SCT025 BKN040 PROB30 2222/2224 4SM -SHRA
      BKN020 BKN025
     FM230200 15006KT P6SM BKN030=

USA.gov is the U.S. government's official web portal to all federal, state and local government web resources and services.